createdAt,value
2019-05-25T01:08:25.168Z,15.50
2019-05-25T01:11:00.556Z,14.70
2019-05-25T01:13:35.713Z,15.15
2019-05-25T01:16:10.950Z,16.62
2019-05-25T07:46:55.637Z,10.23
2019-05-25T07:49:31.166Z,10.35
2019-05-25T07:52:05.972Z,9.28
2019-05-25T07:54:38.978Z,9.68
2019-05-25T07:57:15.771Z,11.38
2019-05-25T07:59:46.686Z,11.35
2019-05-25T08:02:21.758Z,11.40
2019-05-25T08:04:55.712Z,10.70
2019-05-25T08:07:28.712Z,10.88
2019-05-25T08:10:01.797Z,10.15
2019-05-25T08:12:36.456Z,11.05
2019-05-25T08:15:09.794Z,10.58
2019-05-25T08:17:42.858Z,11.55
2019-05-25T08:20:15.963Z,11.40
2019-05-25T08:22:50.715Z,11.10
2019-05-25T08:25:25.381Z,12.05
2019-05-25T08:27:58.553Z,10.53
2019-05-25T08:30:31.718Z,11.30
2019-05-25T08:33:04.998Z,11.57
2019-05-25T08:35:38.198Z,11.45
2019-05-25T08:38:11.435Z,12.28
2019-05-25T08:40:44.843Z,11.38
2019-05-25T08:43:18.011Z,11.57
2019-05-25T08:45:51.368Z,11.43
2019-05-25T08:48:24.571Z,11.88
2019-05-25T08:50:59.704Z,10.90
2019-05-25T08:53:41.535Z,11.53
2019-05-25T08:56:10.723Z,10.68
2019-05-25T08:58:48.412Z,11.08
2019-05-25T09:01:18.944Z,12.60
2019-05-25T09:03:52.264Z,11.97
2019-05-25T09:06:27.079Z,11.90
2019-05-25T09:08:59.999Z,11.60
2019-05-25T09:11:38.484Z,11.80
2019-05-25T09:14:11.889Z,11.15
2019-05-25T09:16:45.284Z,11.10
2019-05-25T09:19:20.083Z,11.65
2019-05-25T09:22:01.896Z,11.65
2019-05-25T09:24:28.222Z,10.58
2019-05-25T09:27:13.675Z,11.55
2019-05-25T09:29:48.563Z,11.57
2019-05-25T09:32:23.714Z,10.82
2019-05-25T09:34:59.182Z,11.50
2019-05-25T09:37:32.765Z,10.13
2019-05-25T09:40:07.748Z,10.60
2019-05-25T09:42:42.706Z,10.08
2019-05-25T09:45:16.776Z,11.43
2019-05-25T09:47:50.517Z,10.82
2019-05-25T09:50:24.175Z,10.55
2019-05-25T09:55:30.029Z,10.95
2019-05-25T09:58:03.736Z,10.63
2019-05-25T10:03:17.151Z,10.82
2019-05-25T10:05:47.644Z,11.00
2019-05-25T10:11:03.919Z,10.15
2019-05-25T10:13:38.318Z,10.65
2019-05-25T10:16:11.737Z,10.75
2019-05-25T10:18:54.056Z,10.05
2019-05-25T10:21:32.361Z,10.88
2019-05-25T10:24:05.536Z,10.75
2019-05-25T10:26:38.977Z,10.23
2019-05-25T10:29:12.446Z,10.18
2019-05-25T10:31:47.744Z,9.90
2019-05-25T10:34:23.250Z,10.48
2019-05-25T10:36:57.128Z,9.80
2019-05-25T10:39:31.394Z,9.38
2019-05-25T10:44:37.387Z,8.85
2019-05-25T10:47:14.187Z,8.33
